sensor_id;sensor_type;location;lat;lon;timestamp;P1;durP1;ratioP1;P2;durP2;ratioP2
63350;SDS011;64988;51.058;17.040;2022-12-13T00:00:14;18.52;;;10.30;;
63350;SDS011;64988;51.058;17.040;2022-12-13T00:06:09;17.77;;;9.07;;
63350;SDS011;64988;51.058;17.040;2022-12-13T00:12:02;13.35;;;6.88;;
63350;SDS011;64988;51.058;17.040;2022-12-13T00:23:48;16.47;;;9.33;;
63350;SDS011;64988;51.058;17.040;2022-12-13T00:29:42;22.52;;;8.20;;
63350;SDS011;64988;51.058;17.040;2022-12-13T00:35:38;18.48;;;8.23;;
63350;SDS011;64988;51.058;17.040;2022-12-13T00:41:33;17.17;;;10.00;;
63350;SDS011;64988;51.058;17.040;2022-12-13T00:47:27;16.10;;;7.72;;
63350;SDS011;64988;51.058;17.040;2022-12-13T00:53:19;21.95;;;8.85;;
63350;SDS011;64988;51.058;17.040;2022-12-13T00:59:13;20.63;;;8.63;;
63350;SDS011;64988;51.058;17.040;2022-12-13T01:05:07;20.48;;;7.80;;
63350;SDS011;64988;51.058;17.040;2022-12-13T01:11:00;20.05;;;9.85;;
63350;SDS011;64988;51.058;17.040;2022-12-13T01:16:54;18.85;;;8.80;;
63350;SDS011;64988;51.058;17.040;2022-12-13T01:28:40;19.48;;;9.82;;
63350;SDS011;64988;51.058;17.040;2022-12-13T01:34:33;18.73;;;9.65;;
63350;SDS011;64988;51.058;17.040;2022-12-13T01:40:27;19.00;;;9.20;;
63350;SDS011;64988;51.058;17.040;2022-12-13T01:46:21;18.73;;;8.60;;
63350;SDS011;64988;51.058;17.040;2022-12-13T01:52:14;19.08;;;9.20;;
63350;SDS011;64988;51.058;17.040;2022-12-13T01:58:09;19.80;;;9.45;;
63350;SDS011;64988;51.058;17.040;2022-12-13T02:04:04;22.08;;;9.85;;
63350;SDS011;64988;51.058;17.040;2022-12-13T02:09:58;19.73;;;8.02;;
63350;SDS011;64988;51.058;17.040;2022-12-13T02:34:24;19.75;;;9.25;;
63350;SDS011;64988;51.058;17.040;2022-12-13T02:40:28;20.60;;;9.15;;
63350;SDS011;64988;51.058;17.040;2022-12-13T02:46:30;16.20;;;8.85;;
63350;SDS011;64988;51.058;17.040;2022-12-13T02:52:28;16.02;;;7.80;;
63350;SDS011;64988;51.058;17.040;2022-12-13T02:58:23;21.00;;;9.00;;
63350;SDS011;64988;51.058;17.040;2022-12-13T03:04:31;19.60;;;8.38;;
63350;SDS011;64988;51.058;17.040;2022-12-13T03:11:03;15.98;;;8.38;;
63350;SDS011;64988;51.058;17.040;2022-12-13T03:16:59;17.48;;;8.27;;
63350;SDS011;64988;51.058;17.040;2022-12-13T03:22:56;12.70;;;6.57;;
63350;SDS011;64988;51.058;17.040;2022-12-13T03:28:50;16.65;;;7.20;;
63350;SDS011;64988;51.058;17.040;2022-12-13T03:34:45;15.18;;;7.68;;
63350;SDS011;64988;51.058;17.040;2022-12-13T03:40:59;13.60;;;7.95;;
63350;SDS011;64988;51.058;17.040;2022-12-13T03:46:53;18.05;;;8.20;;
63350;SDS011;64988;51.058;17.040;2022-12-13T03:53:02;16.95;;;7.53;;
63350;SDS011;64988;51.058;17.040;2022-12-13T03:58:55;17.33;;;8.20;;
63350;SDS011;64988;51.058;17.040;2022-12-13T04:04:47;20.08;;;8.38;;
63350;SDS011;64988;51.058;17.040;2022-12-13T04:16:33;17.00;;;8.00;;
63350;SDS011;64988;51.058;17.040;2022-12-13T04:28:18;25.63;;;9.60;;
63350;SDS011;64988;51.058;17.040;2022-12-13T04:34:13;19.48;;;8.02;;
63350;SDS011;64988;51.058;17.040;2022-12-13T04:40:08;18.30;;;9.10;;
63350;SDS011;64988;51.058;17.040;2022-12-13T04:46:01;19.92;;;8.75;;
63350;SDS011;64988;51.058;17.040;2022-12-13T04:51:53;24.33;;;10.03;;
63350;SDS011;64988;51.058;17.040;2022-12-13T04:57:52;22.35;;;10.40;;
63350;SDS011;64988;51.058;17.040;2022-12-13T05:03:45;28.08;;;11.68;;
63350;SDS011;64988;51.058;17.040;2022-12-13T05:09:37;19.43;;;9.67;;
63350;SDS011;64988;51.058;17.040;2022-12-13T05:15:31;28.20;;;12.30;;
63350;SDS011;64988;51.058;17.040;2022-12-13T05:21:24;32.15;;;13.35;;
63350;SDS011;64988;51.058;17.040;2022-12-13T05:27:19;27.38;;;13.38;;
63350;SDS011;64988;51.058;17.040;2022-12-13T05:33:17;32.63;;;13.10;;
63350;SDS011;64988;51.058;17.040;2022-12-13T05:39:10;31.30;;;12.32;;
63350;SDS011;64988;51.058;17.040;2022-12-13T05:45:20;27.20;;;12.73;;
63350;SDS011;64988;51.058;17.040;2022-12-13T05:51:12;29.45;;;13.75;;
63350;SDS011;64988;51.058;17.040;2022-12-13T05:57:05;33.47;;;13.43;;
63350;SDS011;64988;51.058;17.040;2022-12-13T06:02:58;33.65;;;14.98;;
63350;SDS011;64988;51.058;17.040;2022-12-13T06:08:52;36.45;;;14.73;;
63350;SDS011;64988;51.058;17.040;2022-12-13T06:20:38;28.70;;;13.93;;
63350;SDS011;64988;51.058;17.040;2022-12-13T06:26:31;33.42;;;13.55;;
63350;SDS011;64988;51.058;17.040;2022-12-13T06:38:16;35.15;;;13.40;;
63350;SDS011;64988;51.058;17.040;2022-12-13T06:44:22;28.55;;;12.65;;
63350;SDS011;64988;51.058;17.040;2022-12-13T06:50:15;20.23;;;11.30;;
63350;SDS011;64988;51.058;17.040;2022-12-13T06:56:11;28.07;;;12.27;;
63350;SDS011;64988;51.058;17.040;2022-12-13T07:02:05;29.48;;;13.52;;
63350;SDS011;64988;51.058;17.040;2022-12-13T07:08:14;26.70;;;12.40;;
63350;SDS011;64988;51.058;17.040;2022-12-13T07:14:13;29.40;;;13.27;;
63350;SDS011;64988;51.058;17.040;2022-12-13T07:20:06;28.15;;;13.98;;
63350;SDS011;64988;51.058;17.040;2022-12-13T07:26:00;30.85;;;13.45;;
63350;SDS011;64988;51.058;17.040;2022-12-13T07:31:53;33.10;;;14.85;;
63350;SDS011;64988;51.058;17.040;2022-12-13T07:37:53;32.92;;;13.82;;
63350;SDS011;64988;51.058;17.040;2022-12-13T07:43:46;27.83;;;12.45;;
63350;SDS011;64988;51.058;17.040;2022-12-13T07:49:46;22.63;;;11.52;;
63350;SDS011;64988;51.058;17.040;2022-12-13T07:55:38;28.13;;;12.15;;
63350;SDS011;64988;51.058;17.040;2022-12-13T08:01:31;24.73;;;12.57;;
63350;SDS011;64988;51.058;17.040;2022-12-13T08:07:28;19.58;;;10.63;;
63350;SDS011;64988;51.058;17.040;2022-12-13T08:13:19;22.98;;;10.85;;
63350;SDS011;64988;51.058;17.040;2022-12-13T08:19:13;19.88;;;10.75;;
63350;SDS011;64988;51.058;17.040;2022-12-13T08:25:06;21.98;;;10.45;;
63350;SDS011;64988;51.058;17.040;2022-12-13T08:31:03;20.38;;;10.52;;
63350;SDS011;64988;51.058;17.040;2022-12-13T08:36:57;21.58;;;9.52;;
63350;SDS011;64988;51.058;17.040;2022-12-13T08:42:54;19.40;;;10.38;;
63350;SDS011;64988;51.058;17.040;2022-12-13T08:48:47;19.67;;;10.27;;
63350;SDS011;64988;51.058;17.040;2022-12-13T08:54:40;19.70;;;11.10;;
63350;SDS011;64988;51.058;17.040;2022-12-13T09:00:34;25.50;;;11.60;;
63350;SDS011;64988;51.058;17.040;2022-12-13T09:06:27;22.50;;;10.98;;
63350;SDS011;64988;51.058;17.040;2022-12-13T09:12:19;17.45;;;9.25;;
63350;SDS011;64988;51.058;17.040;2022-12-13T09:18:22;18.83;;;8.20;;
63350;SDS011;64988;51.058;17.040;2022-12-13T09:24:17;24.17;;;8.05;;
63350;SDS011;64988;51.058;17.040;2022-12-13T09:30:15;16.38;;;8.45;;
63350;SDS011;64988;51.058;17.040;2022-12-13T09:36:07;18.33;;;8.38;;
63350;SDS011;64988;51.058;17.040;2022-12-13T09:42:03;14.40;;;8.15;;
63350;SDS011;64988;51.058;17.040;2022-12-13T09:48:01;18.45;;;8.23;;
63350;SDS011;64988;51.058;17.040;2022-12-13T09:54:04;18.73;;;7.83;;
63350;SDS011;64988;51.058;17.040;2022-12-13T09:59:57;13.30;;;8.73;;
63350;SDS011;64988;51.058;17.040;2022-12-13T10:06:13;15.35;;;8.45;;
63350;SDS011;64988;51.058;17.040;2022-12-13T10:12:13;18.73;;;9.50;;
63350;SDS011;64988;51.058;17.040;2022-12-13T10:18:08;15.68;;;8.88;;
63350;SDS011;64988;51.058;17.040;2022-12-13T10:30:25;20.20;;;8.65;;
63350;SDS011;64988;51.058;17.040;2022-12-13T10:36:33;15.55;;;8.85;;
63350;SDS011;64988;51.058;17.040;2022-12-13T10:42:29;14.68;;;7.03;;
63350;SDS011;64988;51.058;17.040;2022-12-13T10:48:33;21.70;;;8.90;;
63350;SDS011;64988;51.058;17.040;2022-12-13T10:54:33;17.60;;;8.32;;
63350;SDS011;64988;51.058;17.040;2022-12-13T11:00:43;20.05;;;9.45;;
63350;SDS011;64988;51.058;17.040;2022-12-13T11:06:41;20.10;;;9.23;;
63350;SDS011;64988;51.058;17.040;2022-12-13T11:12:36;17.83;;;9.68;;
63350;SDS011;64988;51.058;17.040;2022-12-13T11:18:34;18.95;;;9.30;;
63350;SDS011;64988;51.058;17.040;2022-12-13T11:24:31;21.25;;;8.70;;
63350;SDS011;64988;51.058;17.040;2022-12-13T11:30:32;18.67;;;8.52;;
63350;SDS011;64988;51.058;17.040;2022-12-13T11:42:31;15.07;;;7.75;;
63350;SDS011;64988;51.058;17.040;2022-12-13T11:48:35;16.63;;;7.47;;
63350;SDS011;64988;51.058;17.040;2022-12-13T12:00:42;14.00;;;7.38;;
63350;SDS011;64988;51.058;17.040;2022-12-13T12:06:59;13.93;;;8.00;;
63350;SDS011;64988;51.058;17.040;2022-12-13T12:13:30;14.60;;;6.82;;
63350;SDS011;64988;51.058;17.040;2022-12-13T12:19:44;14.60;;;7.85;;
63350;SDS011;64988;51.058;17.040;2022-12-13T12:25:52;16.25;;;8.43;;
63350;SDS011;64988;51.058;17.040;2022-12-13T12:56:39;14.50;;;8.00;;
63350;SDS011;64988;51.058;17.040;2022-12-13T13:02:43;17.27;;;8.35;;
63350;SDS011;64988;51.058;17.040;2022-12-13T13:08:48;18.97;;;8.80;;
63350;SDS011;64988;51.058;17.040;2022-12-13T13:14:48;24.02;;;10.77;;
63350;SDS011;64988;51.058;17.040;2022-12-13T13:20:40;17.47;;;8.30;;
63350;SDS011;64988;51.058;17.040;2022-12-13T13:26:35;16.02;;;8.30;;
63350;SDS011;64988;51.058;17.040;2022-12-13T13:32:37;16.95;;;8.25;;
63350;SDS011;64988;51.058;17.040;2022-12-13T13:38:48;23.10;;;10.70;;
63350;SDS011;64988;51.058;17.040;2022-12-13T14:10:06;15.05;;;7.63;;
63350;SDS011;64988;51.058;17.040;2022-12-13T14:28:41;16.15;;;8.77;;
63350;SDS011;64988;51.058;17.040;2022-12-13T14:34:37;21.70;;;9.73;;
63350;SDS011;64988;51.058;17.040;2022-12-13T14:40:32;22.00;;;10.98;;
63350;SDS011;64988;51.058;17.040;2022-12-13T14:46:26;46.13;;;17.33;;
63350;SDS011;64988;51.058;17.040;2022-12-13T14:52:20;40.75;;;16.92;;
63350;SDS011;64988;51.058;17.040;2022-12-13T14:58:18;28.17;;;12.80;;
63350;SDS011;64988;51.058;17.040;2022-12-13T15:04:25;29.25;;;14.10;;
63350;SDS011;64988;51.058;17.040;2022-12-13T15:10:21;31.30;;;14.68;;
63350;SDS011;64988;51.058;17.040;2022-12-13T15:16:28;41.17;;;17.08;;
63350;SDS011;64988;51.058;17.040;2022-12-13T15:22:27;41.67;;;17.63;;
63350;SDS011;64988;51.058;17.040;2022-12-13T15:28:28;35.25;;;15.38;;
63350;SDS011;64988;51.058;17.040;2022-12-13T15:40:24;31.75;;;14.57;;
63350;SDS011;64988;51.058;17.040;2022-12-13T15:46:24;29.77;;;14.48;;
63350;SDS011;64988;51.058;17.040;2022-12-13T15:52:29;67.60;;;22.70;;
63350;SDS011;64988;51.058;17.040;2022-12-13T15:58:43;160.52;;;56.00;;
63350;SDS011;64988;51.058;17.040;2022-12-13T16:04:45;64.10;;;28.02;;
63350;SDS011;64988;51.058;17.040;2022-12-13T16:10:48;46.67;;;18.17;;
63350;SDS011;64988;51.058;17.040;2022-12-13T16:16:46;48.10;;;19.48;;
63350;SDS011;64988;51.058;17.040;2022-12-13T16:22:41;50.42;;;21.25;;
63350;SDS011;64988;51.058;17.040;2022-12-13T16:28:35;58.10;;;23.58;;
63350;SDS011;64988;51.058;17.040;2022-12-13T16:34:30;73.78;;;27.10;;
63350;SDS011;64988;51.058;17.040;2022-12-13T16:40:24;72.53;;;30.15;;
63350;SDS011;64988;51.058;17.040;2022-12-13T16:46:20;72.15;;;29.95;;
63350;SDS011;64988;51.058;17.040;2022-12-13T16:52:33;73.68;;;28.70;;
63350;SDS011;64988;51.058;17.040;2022-12-13T16:58:28;78.78;;;30.80;;
63350;SDS011;64988;51.058;17.040;2022-12-13T17:04:22;92.45;;;33.15;;
63350;SDS011;64988;51.058;17.040;2022-12-13T17:10:20;85.28;;;34.83;;
63350;SDS011;64988;51.058;17.040;2022-12-13T17:16:13;92.50;;;33.83;;
63350;SDS011;64988;51.058;17.040;2022-12-13T17:22:08;86.97;;;35.10;;
63350;SDS011;64988;51.058;17.040;2022-12-13T17:33:56;96.80;;;36.15;;
63350;SDS011;64988;51.058;17.040;2022-12-13T17:39:48;91.83;;;35.97;;
63350;SDS011;64988;51.058;17.040;2022-12-13T17:45:41;85.35;;;33.72;;
63350;SDS011;64988;51.058;17.040;2022-12-13T17:51:34;77.25;;;31.48;;
63350;SDS011;64988;51.058;17.040;2022-12-13T17:57:29;77.65;;;30.95;;
63350;SDS011;64988;51.058;17.040;2022-12-13T18:03:24;76.95;;;31.50;;
63350;SDS011;64988;51.058;17.040;2022-12-13T18:09:17;92.07;;;36.50;;
63350;SDS011;64988;51.058;17.040;2022-12-13T18:15:10;93.75;;;38.08;;
63350;SDS011;64988;51.058;17.040;2022-12-13T18:21:10;98.95;;;38.33;;
63350;SDS011;64988;51.058;17.040;2022-12-13T18:27:08;95.55;;;37.10;;
63350;SDS011;64988;51.058;17.040;2022-12-13T18:33:02;83.80;;;33.42;;
63350;SDS011;64988;51.058;17.040;2022-12-13T18:38:55;100.68;;;38.70;;
63350;SDS011;64988;51.058;17.040;2022-12-13T18:44:48;95.38;;;36.25;;
63350;SDS011;64988;51.058;17.040;2022-12-13T18:50:47;94.70;;;37.50;;
63350;SDS011;64988;51.058;17.040;2022-12-13T18:56:42;101.82;;;40.05;;
63350;SDS011;64988;51.058;17.040;2022-12-13T19:02:35;101.72;;;41.08;;
63350;SDS011;64988;51.058;17.040;2022-12-13T19:08:30;143.27;;;53.33;;
63350;SDS011;64988;51.058;17.040;2022-12-13T19:14:26;135.65;;;51.42;;
63350;SDS011;64988;51.058;17.040;2022-12-13T19:20:19;138.57;;;51.05;;
63350;SDS011;64988;51.058;17.040;2022-12-13T19:26:13;122.10;;;50.45;;
63350;SDS011;64988;51.058;17.040;2022-12-13T19:32:05;122.85;;;48.72;;
63350;SDS011;64988;51.058;17.040;2022-12-13T19:37:59;131.43;;;51.40;;
63350;SDS011;64988;51.058;17.040;2022-12-13T19:43:52;119.70;;;49.88;;
63350;SDS011;64988;51.058;17.040;2022-12-13T19:49:45;113.82;;;47.67;;
63350;SDS011;64988;51.058;17.040;2022-12-13T19:55:44;104.93;;;41.60;;
63350;SDS011;64988;51.058;17.040;2022-12-13T20:01:40;113.50;;;39.92;;
63350;SDS011;64988;51.058;17.040;2022-12-13T20:07:32;111.78;;;42.42;;
63350;SDS011;64988;51.058;17.040;2022-12-13T20:19:19;127.03;;;44.80;;
63350;SDS011;64988;51.058;17.040;2022-12-13T20:25:12;120.95;;;43.03;;
63350;SDS011;64988;51.058;17.040;2022-12-13T20:31:12;119.28;;;42.97;;
63350;SDS011;64988;51.058;17.040;2022-12-13T20:37:07;98.23;;;40.03;;
63350;SDS011;64988;51.058;17.040;2022-12-13T20:43:01;108.00;;;40.40;;
63350;SDS011;64988;51.058;17.040;2022-12-13T20:48:54;135.30;;;50.63;;
63350;SDS011;64988;51.058;17.040;2022-12-13T20:54:48;147.43;;;50.13;;
63350;SDS011;64988;51.058;17.040;2022-12-13T21:00:41;144.10;;;50.60;;
63350;SDS011;64988;51.058;17.040;2022-12-13T21:06:35;129.80;;;49.25;;
63350;SDS011;64988;51.058;17.040;2022-12-13T21:12:30;133.45;;;48.75;;
63350;SDS011;64988;51.058;17.040;2022-12-13T21:18:22;135.93;;;50.37;;
63350;SDS011;64988;51.058;17.040;2022-12-13T21:24:15;131.10;;;45.47;;
63350;SDS011;64988;51.058;17.040;2022-12-13T21:30:09;129.73;;;48.28;;
63350;SDS011;64988;51.058;17.040;2022-12-13T21:36:13;131.80;;;48.67;;
63350;SDS011;64988;51.058;17.040;2022-12-13T21:42:08;142.15;;;55.75;;
63350;SDS011;64988;51.058;17.040;2022-12-13T21:53:53;126.47;;;49.65;;
63350;SDS011;64988;51.058;17.040;2022-12-13T21:59:47;123.07;;;47.60;;
63350;SDS011;64988;51.058;17.040;2022-12-13T22:05:41;142.77;;;49.50;;
63350;SDS011;64988;51.058;17.040;2022-12-13T22:11:36;132.32;;;50.78;;
63350;SDS011;64988;51.058;17.040;2022-12-13T22:17:29;147.40;;;51.03;;
63350;SDS011;64988;51.058;17.040;2022-12-13T22:23:27;154.43;;;54.78;;
63350;SDS011;64988;51.058;17.040;2022-12-13T22:29:20;147.48;;;54.67;;
63350;SDS011;64988;51.058;17.040;2022-12-13T22:35:13;147.48;;;56.53;;
63350;SDS011;64988;51.058;17.040;2022-12-13T22:46:57;162.38;;;56.65;;
63350;SDS011;64988;51.058;17.040;2022-12-13T22:52:51;173.98;;;54.45;;
63350;SDS011;64988;51.058;17.040;2022-12-13T22:58:45;177.98;;;57.47;;
63350;SDS011;64988;51.058;17.040;2022-12-13T23:04:39;166.55;;;60.95;;
63350;SDS011;64988;51.058;17.040;2022-12-13T23:10:32;164.88;;;56.90;;
63350;SDS011;64988;51.058;17.040;2022-12-13T23:16:44;175.27;;;58.22;;
63350;SDS011;64988;51.058;17.040;2022-12-13T23:22:37;156.23;;;54.20;;
63350;SDS011;64988;51.058;17.040;2022-12-13T23:28:29;177.82;;;55.97;;
63350;SDS011;64988;51.058;17.040;2022-12-13T23:34:22;161.20;;;55.40;;
63350;SDS011;64988;51.058;17.040;2022-12-13T23:40:14;144.35;;;47.20;;
63350;SDS011;64988;51.058;17.040;2022-12-13T23:46:08;160.77;;;55.15;;
63350;SDS011;64988;51.058;17.040;2022-12-13T23:52:02;158.63;;;54.22;;
63350;SDS011;64988;51.058;17.040;2022-12-13T23:57:55;147.63;;;50.05;;
